O'tomne en Savoie La Féclaz (73) - D

Date : 30/09/2012
Distance : 3,700 km

Place Nom Licence Catégorie Club Temps min/km CN à J-60 Points Différence Nouveau CN
1 PERRIN Mathieu 8976 H14 4201RA 0:33:38 9'05 6191 9398 +3207 7027
2 BODY Mathilde 10184 D16 7305RA 0:42:57 11'36 5805 7359 +1554 6587
3 DERMINE Jean 1848 H60 3801RA 0:46:43 12'37 6537 6766 +229 6982
4 BASSET Juliette 12398 D14 6911RA 0:49:07 13'16 4528 6435 +1907 4708
5 VUITTON Marie 18842 D14 6911RA 0:51:37 13'57 4767 6124 +1357 5505
6 BORNARD Julie 9402 D16 7305RA 0:51:42 13'58 5220 6114 +894 5924
7 DUDOIGNON Chloé 18089 D14 2605RA 0:54:50 14'49 4004 5764 +1760 4501
8 DROIN Solène 17925 D16 4201RA 0:54:51 14'49 5692 5763 +71 6217
9 PONCET Jean-Pierre 16756 H65 3913FC 0:55:48 15'04 6350 5664 -686 5920
10 BASSET Fiona 23384 D16 6911RA 0:56:39 15'18 5135 5579 +444 5443
11 VALETTE Marion 10430 D16 6913RA 0:57:31 15'32 4501 5495 +994 5050
12 RIVOLLIER Isaline 22451 D16 4201RA 0:58:56 15'55 4550 5363 +813 4709
13 STARKE Paula 26505 D16 6913RA 0:59:39 16'07 5299 5087
14 MASCARELL Henri 8928 H60 6911RA 1:03:12 17'04 5890 5001 -889 5789
15 GOLMARD Christian 2669 H65 2101BO 1:03:36 17'11 4871 4970 +99 4711
16 JOUNEAU Agathe 14402 D14 3810RA 1:03:42 17'12 4193 4962 +769 4615
17 BONORA Marine 11542 D16 6906RA 1:06:29 17'58 4202 4754 +552 4690
18 BAILLEUL Jean-Paul 9165 H55 6009PI 1:13:48 19'56 4571 4283 -288 4744
19 RAGACHE Jean-Claude 7147 H60 3811RA 1:16:33 20'41 4514 4129 -385 4365
20 THIEVENAZ Roland 9230 H60 3811RA 1:17:34 20'57 5202 4075 -1127 5146
21 JACOMINO Mireille 277 D50 3801RA 1:19:47 21'33 4555 3962 -593 4555
22 GENNARO Leslie 20863 D16 3811RA 1:24:05 22'43 3726 3759 +33 3793
23 ROUX Marie Françoise 25236 D50 4201RA 1:26:07 23'16 4054 3670 -384 4054
24 LASSALLE J-Paul 1677 H65 0111RA 1:28:20 23'52 3349 3578 +229 3425
25 BOURRIN M-Francoise 807 D55 4203RA 1:30:00 24'19 3248 3512 +264 3525
26 GRATIEN Magali 10285 D21 7403RA 1:31:11 24'38 3645 3466 -179 3690
27 ANNE Roger 1673 H60 0111RA 1:32:53 25'06 4857 3403 -1454 4857
28 FERRAND M-Christine 8626 D55 3811RA 1:33:21 25'13 3357 3386 +29 3218
29 GRATIEN Nathalie 10283 D45 7403RA 1:34:24 25'30 3316 3348 +32 3316
30 SLIMAN Jacques 4537 H60 0503PR 1:37:48 26'25 4124 3232 -892 4071
31 TESSIER Christel 23871 D40 3801RA 1:38:46 26'41 2929 3200 +271 3043
32 PITAVAL Sylvie 12060 D50 4201RA 1:39:12 26'48 3956 3186 -770 3813
33 TESSIER Jean-marc 23870 H40 3801RA 1:39:59 27'01 3178 3161 -17 3351
34 VALETTE Isabelle 2270 D40 6913RA 1:40:21 27'07 3639 3150 -489 3549
35 BOUCHERLE Ghislaine 4479 D60 3801RA 1:40:52 27'15 3311 3134 -177 3329
36 FALGA Beatrice 12403 D16 6911RA 1:41:16 27'22 4209 3121 -1088 4110
37 EUZEN J-Paul 16403 H70 6911RA 1:41:38 27'28 2904 3110 +206 3250
38 DEGORS Marine 25439 D16 3809RA 1:43:06 27'51 2235 3066 +831 2614
39 GUET Martine 11810 D55 6906RA 1:43:59 28'06 3027 3040 +13 3133
40 MOLLARET Arielle 14534 D50 7404RA 1:46:12 28'42 2878 2976 +98 2947
41 TIRAVY Laurence 23221 D40 6906RA 1:48:38 29'21 2711 2910 +199 2837
42 GIBIAT Danielle 3547 D55 8405PR 1:48:44 29'23 3617 2907 -710 3409
43 PONCET Catherine 16755 D50 3913FC 1:56:23 31'27 3544 2716 -828 3633
44 VILLEDIEU Martine 13752 D55 6913RA 1:58:39 32'04 3904 2664 -1240 3904
45 LENFANT Chantal 10264 D55 3811RA 2:02:27 33'05 3234 2581 -653 2936
46 CATMUR virginia 25103 D55 0503PR 2:07:44 34'31 1935 2475 +540 2081
47 GASTINI Katia 24928 D40 7307RA 2:17:15 37'05 3078 2303 -775 2884
48 BOUILLET Geneviève 8944 D60 3811RA 2:31:03 40'49 2952 2093 -859 2952
49 RIVOLLIER Stéphanie 24185 D40 4201RA 2:54:10 47'04 1815 1409
50 DROIN Marie-helene 21209 D45 4201RA 2:56:13 47'37 0 1794 1335
DERMINE Isabelle 1847 D50 3801RA pm None 5212 0 5219
THIEVENAZ Francoise 19672 D60 3811RA pm None 2113 0 2113
FORAY Alexandre 25609 H35 3811RA pm None 0 0 0
SINIBALDI Marc 1347 H70 3801RA pm None 5301 0 5301